createdAt,value
2018-07-28T00:05:22.551Z,83.70
2018-07-28T00:15:25.645Z,85.10
2018-07-28T00:25:32.993Z,85.30
2018-07-28T00:35:36.048Z,85.70
2018-07-28T00:45:39.186Z,86.00
2018-07-28T00:55:42.235Z,86.50
2018-07-28T01:05:45.354Z,87.40
2018-07-28T01:25:51.382Z,88.40
2018-07-28T01:35:54.406Z,88.40
2018-07-28T01:45:57.602Z,88.40
2018-07-28T01:56:00.619Z,89.40
2018-07-28T02:06:05.807Z,89.00
2018-07-28T02:16:09.011Z,89.70
2018-07-28T02:26:12.066Z,89.80
2018-07-28T02:36:15.141Z,89.60
2018-07-28T02:46:18.198Z,90.20
2018-07-28T02:56:21.259Z,90.10
2018-07-28T03:06:24.362Z,90.60
2018-07-28T03:16:28.451Z,90.90
2018-07-28T03:26:31.506Z,91.30
2018-07-28T03:36:34.551Z,91.60
2018-07-28T03:46:37.591Z,92.00
2018-07-28T03:56:40.702Z,92.50
2018-07-28T04:06:50.194Z,93.90
2018-07-28T04:16:53.332Z,94.50
2018-07-28T04:26:56.413Z,95.80
2018-07-28T04:36:59.456Z,99.90
2018-07-28T04:47:02.679Z,99.50
2018-07-28T04:57:05.839Z,99.90
2018-07-28T05:07:09.665Z,99.90
2018-07-28T05:17:12.706Z,99.90
2018-07-28T05:27:15.769Z,99.90
2018-07-28T05:37:18.850Z,99.90
2018-07-28T05:47:22.005Z,99.90
2018-07-28T05:57:25.078Z,99.90
2018-07-28T06:07:29.351Z,99.90
2018-07-28T06:17:32.459Z,99.90
2018-07-28T06:27:35.518Z,99.90
2018-07-28T06:37:38.551Z,99.90
2018-07-28T06:47:41.621Z,99.50
2018-07-28T06:57:44.654Z,98.90
2018-07-28T07:07:47.821Z,98.70
2018-07-28T07:17:50.860Z,97.00
2018-07-28T07:27:55.044Z,96.70
2018-07-28T07:37:58.157Z,96.30
2018-07-28T07:48:01.339Z,95.60
2018-07-28T07:58:04.619Z,95.10
2018-07-28T08:08:07.707Z,94.50
2018-07-28T08:18:10.825Z,93.70
2018-07-28T08:28:13.981Z,92.90
2018-07-28T08:38:17.019Z,90.20
2018-07-28T08:48:20.189Z,90.60
2018-07-28T08:58:23.254Z,89.90
2018-07-28T09:08:26.302Z,85.30
2018-07-28T09:18:29.329Z,82.60
2018-07-28T09:28:32.405Z,81.90
2018-07-28T09:38:35.462Z,78.50
2018-07-28T09:48:40.580Z,78.10
2018-07-28T09:58:43.633Z,72.60
2018-07-28T10:08:47.094Z,75.40
2018-07-28T10:18:50.282Z,75.80
2018-07-28T10:28:53.407Z,68.40
2018-07-28T10:38:56.474Z,65.40
2018-07-28T10:48:59.699Z,69.90
2018-07-28T10:59:02.747Z,67.40
2018-07-28T11:09:07.565Z,57.80
2018-07-28T11:19:10.533Z,61.60
2018-07-28T11:29:13.585Z,59.70
2018-07-28T11:39:28.183Z,61.20
2018-07-28T11:49:31.213Z,60.40
2018-07-28T11:59:34.266Z,59.00
2018-07-28T12:09:37.311Z,53.70
2018-07-28T12:19:40.365Z,56.40
2018-07-28T12:29:43.427Z,54.20
2018-07-28T12:39:48.502Z,55.80
2018-07-28T12:49:51.582Z,53.00
2018-07-28T12:59:54.742Z,52.00
2018-07-28T13:09:57.799Z,50.50
2018-07-28T13:20:03.030Z,51.80
2018-07-28T13:30:07.377Z,50.70
2018-07-28T13:40:10.453Z,51.80
2018-07-28T13:50:13.627Z,49.00
2018-07-28T14:00:17.762Z,50.80
2018-07-28T14:10:20.795Z,51.40
2018-07-28T14:20:23.942Z,48.40
2018-07-28T14:30:28.213Z,48.80
2018-07-28T14:40:31.262Z,50.20
2018-07-28T14:50:34.314Z,50.30
2018-07-28T15:00:37.353Z,51.50
2018-07-28T15:10:40.396Z,51.70
2018-07-28T15:20:43.479Z,49.40
2018-07-28T15:30:46.501Z,51.50
2018-07-28T15:40:49.541Z,50.70
2018-07-28T15:50:52.582Z,52.60
2018-07-28T16:00:55.600Z,49.50
2018-07-28T16:10:58.613Z,48.80
2018-07-28T16:21:01.659Z,50.90
2018-07-28T16:31:04.702Z,51.60
2018-07-28T16:41:07.867Z,51.90
2018-07-28T16:51:10.939Z,52.10
2018-07-28T17:01:13.909Z,51.70
2018-07-28T17:11:16.975Z,52.30
2018-07-28T17:21:20.043Z,52.60
2018-07-28T17:31:23.264Z,53.20
2018-07-28T17:41:26.378Z,55.70
2018-07-28T18:01:34.802Z,59.30
2018-07-28T18:11:37.842Z,55.10
2018-07-28T18:21:44.511Z,58.50
2018-07-28T18:31:47.574Z,65.60
2018-07-28T18:41:52.775Z,70.20
2018-07-28T18:51:58.865Z,75.30
2018-07-28T19:02:02.025Z,81.70
2018-07-28T19:12:05.530Z,87.10
2018-07-28T19:22:14.246Z,89.70
2018-07-28T19:32:17.302Z,95.40
2018-07-28T19:42:25.815Z,99.90
2018-07-28T19:52:28.945Z,99.90
2018-07-28T20:02:32.030Z,99.90
2018-07-28T20:12:35.328Z,99.90
2018-07-28T20:32:45.807Z,99.90
2018-07-28T20:42:49.145Z,99.50
2018-07-28T20:52:52.562Z,99.90
2018-07-28T21:02:55.583Z,99.90
2018-07-28T21:12:58.982Z,99.90
2018-07-28T21:23:02.014Z,99.90
2018-07-28T21:33:05.096Z,99.90
2018-07-28T21:53:10.993Z,99.90
2018-07-28T22:03:13.998Z,99.90
2018-07-28T22:13:17.002Z,99.90
2018-07-28T22:23:20.094Z,99.90
2018-07-28T22:33:23.102Z,99.90
2018-07-28T22:43:26.152Z,99.40
2018-07-28T22:53:29.166Z,99.10
2018-07-28T23:03:32.224Z,99.90
2018-07-28T23:13:35.289Z,99.90
2018-07-28T23:23:38.382Z,99.90
2018-07-28T23:33:42.549Z,99.90
2018-07-28T23:43:45.672Z,99.90
2018-07-28T23:53:48.713Z,99.90
